Time;durP1;ratioP1;P1;durP2;ratioP2;P2;SDS_P1;SDS_P2;PMS_P1;PMS_P2;Temp;Humidity;BMP_temperature;BMP_pressure;BME280_temperature;BME280_humidity;BME280_pressure;Samples;Min_cycle;Max_cycle;Signal;HPM_P1;HPM_P2
2024/01/07 00:01:49;;;;;;;6.07;3.25;;;;;;;;;;7370573;19;20011;-76
2024/01/07 00:04:18;;;;;;;7.35;3.40;;;;;;;;;;7378230;19;20010;-76
2024/01/07 00:06:43;;;;;;;6.40;3.50;;;;;;;;;;7394760;19;19994;-74
2024/01/07 00:09:11;;;;;;;7.93;3.45;;;;;;;;;;7368756;19;20017;-74
2024/01/07 00:11:36;;;;;;;5.75;3.33;;;;;;;;;;7369250;19;20041;-75
2024/01/07 00:14:01;;;;;;;6.65;3.65;;;;;;;;;;7368420;19;20668;-75
2024/01/07 00:16:26;;;;;;;5.75;3.53;;;;;;;;;;7367777;19;20103;-75
2024/01/07 00:18:52;;;;;;;9.07;3.55;;;;;;;;;;7389315;19;20087;-75
2024/01/07 00:21:17;;;;;;;6.82;3.70;;;;;;;;;;7367387;19;20021;-75
2024/01/07 00:23:42;;;;;;;8.80;3.33;;;;;;;;;;7365394;19;20019;-75
2024/01/07 00:26:09;;;;;;;7.68;3.88;;;;;;;;;;7367075;19;20018;-75
2024/01/07 00:28:35;;;;;;;6.30;3.45;;;;;;;;;;7360193;19;20006;-75
2024/01/07 00:31:00;;;;;;;7.13;3.72;;;;;;;;;;7367489;19;20378;-75
2024/01/07 00:33:25;;;;;;;6.78;3.88;;;;;;;;;;7387043;19;19998;-75
2024/01/07 00:35:51;;;;;;;6.43;3.60;;;;;;;;;;7366629;19;20006;-75
2024/01/07 00:38:16;;;;;;;8.07;4.07;;;;;;;;;;7366014;19;20559;-77
2024/01/07 00:40:41;;;;;;;7.47;4.07;;;;;;;;;;7367739;19;20013;-75
2024/01/07 00:43:07;;;;;;;7.10;3.72;;;;;;;;;;7370088;19;20639;-76
2024/01/07 00:45:32;;;;;;;7.78;4.45;;;;;;;;;;7391873;19;20427;-76
2024/01/07 00:47:57;;;;;;;7.85;4.15;;;;;;;;;;7368982;19;20240;-76
2024/01/07 00:50:23;;;;;;;8.38;4.68;;;;;;;;;;7370042;19;20006;-77
2024/01/07 00:52:48;;;;;;;8.20;4.35;;;;;;;;;;7367461;19;20022;-76
2024/01/07 00:55:13;;;;;;;7.70;4.00;;;;;;;;;;7368836;19;20002;-76
2024/01/07 00:57:39;;;;;;;10.13;4.43;;;;;;;;;;7390574;19;20002;-75
2024/01/07 01:00:05;;;;;;;7.57;4.20;;;;;;;;;;7367640;19;19998;-76
2024/01/07 01:02:31;;;;;;;7.65;4.25;;;;;;;;;;7367322;19;20089;-77
2024/01/07 01:04:56;;;;;;;7.15;4.15;;;;;;;;;;7366520;19;20006;-76
2024/01/07 01:07:21;;;;;;;8.43;4.65;;;;;;;;;;7368220;19;20034;-77
2024/01/07 01:09:47;;;;;;;9.20;4.43;;;;;;;;;;7397772;19;20002;-76
2024/01/07 01:12:12;;;;;;;8.68;4.32;;;;;;;;;;7379128;19;20015;-76
2024/01/07 01:14:37;;;;;;;9.15;5.28;;;;;;;;;;7376621;19;20003;-77
2024/01/07 01:17:03;;;;;;;10.02;5.03;;;;;;;;;;7371811;19;20013;-75
2024/01/07 01:19:28;;;;;;;11.00;5.88;;;;;;;;;;7380565;19;20003;-74
2024/01/07 01:21:53;;;;;;;10.90;5.57;;;;;;;;;;7396372;19;20003;-75
2024/01/07 01:24:19;;;;;;;10.10;5.30;;;;;;;;;;7369227;19;20011;-76
2024/01/07 01:26:44;;;;;;;8.70;5.35;;;;;;;;;;7367617;19;20003;-75
2024/01/07 01:29:09;;;;;;;12.10;5.53;;;;;;;;;;7367053;19;20095;-76
2024/01/07 01:31:35;;;;;;;9.27;5.40;;;;;;;;;;7372140;19;20010;-75
2024/01/07 01:34:00;;;;;;;10.05;5.65;;;;;;;;;;7377711;19;20062;-76
2024/01/07 01:36:26;;;;;;;10.40;5.57;;;;;;;;;;7402406;19;20009;-76
2024/01/07 01:38:51;;;;;;;9.60;5.82;;;;;;;;;;7380378;19;20019;-75
2024/01/07 01:41:17;;;;;;;10.02;5.32;;;;;;;;;;7380311;19;20003;-75
2024/01/07 01:43:42;;;;;;;9.93;5.38;;;;;;;;;;7381235;19;20003;-75
2024/01/07 01:46:08;;;;;;;8.07;5.03;;;;;;;;;;7381997;19;19999;-75
2024/01/07 01:48:35;;;;;;;9.05;5.35;;;;;;;;;;7406427;19;20524;-75
2024/01/07 01:51:02;;;;;;;8.38;4.63;;;;;;;;;;7389090;19;20045;-75
2024/01/07 01:53:27;;;;;;;9.23;5.03;;;;;;;;;;7380939;19;20002;-75
2024/01/07 01:55:56;;;;;;;9.02;5.20;;;;;;;;;;7379084;19;20006;-75
2024/01/07 01:58:23;;;;;;;10.05;4.95;;;;;;;;;;7379326;19;20007;-75
2024/01/07 02:00:48;;;;;;;8.90;5.25;;;;;;;;;;7402068;19;20006;-75
2024/01/07 02:03:13;;;;;;;10.82;6.15;;;;;;;;;;7378502;19;20468;-75
2024/01/07 02:05:39;;;;;;;11.40;5.53;;;;;;;;;;7377984;19;20468;-76
2024/01/07 02:08:05;;;;;;;10.70;5.40;;;;;;;;;;7377595;19;20002;-76
2024/01/07 02:10:34;;;;;;;12.40;6.35;;;;;;;;;;7379656;19;20074;-76
2024/01/07 02:13:00;;;;;;;11.25;6.68;;;;;;;;;;7378619;19;20002;-76
2024/01/07 02:15:25;;;;;;;9.88;5.30;;;;;;;;;;7402139;19;20332;-75
2024/01/07 02:17:50;;;;;;;10.00;5.80;;;;;;;;;;7375526;19;20006;-75
2024/01/07 02:20:16;;;;;;;11.55;5.80;;;;;;;;;;7379844;19;20026;-76
2024/01/07 02:22:41;;;;;;;8.75;5.25;;;;;;;;;;7372257;19;20485;-75
2024/01/07 02:25:08;;;;;;;9.55;6.15;;;;;;;;;;7372033;19;20415;-75
2024/01/07 02:27:33;;;;;;;10.07;6.05;;;;;;;;;;7392850;19;20014;-76
2024/01/07 02:29:59;;;;;;;10.52;5.60;;;;;;;;;;7369529;19;20468;-75
2024/01/07 02:32:24;;;;;;;10.60;6.05;;;;;;;;;;7368555;19;20006;-76
2024/01/07 02:34:49;;;;;;;8.90;5.35;;;;;;;;;;7368777;19;20014;-75
2024/01/07 02:37:15;;;;;;;8.65;5.53;;;;;;;;;;7368134;19;20001;-76
2024/01/07 02:39:40;;;;;;;8.30;5.05;;;;;;;;;;7390565;19;20026;-76
2024/01/07 02:42:05;;;;;;;9.15;5.20;;;;;;;;;;7364427;19;20014;-75
2024/01/07 02:44:31;;;;;;;9.52;5.57;;;;;;;;;;7369264;19;20030;-75
2024/01/07 02:46:56;;;;;;;8.90;5.53;;;;;;;;;;7368663;19;20455;-76
2024/01/07 02:49:21;;;;;;;11.70;5.75;;;;;;;;;;7370584;19;20007;-75
2024/01/07 02:51:49;;;;;;;9.15;5.28;;;;;;;;;;7395643;19;20004;-76
2024/01/07 02:54:15;;;;;;;8.25;5.20;;;;;;;;;;7396357;19;20090;-76
2024/01/07 02:56:40;;;;;;;9.40;5.20;;;;;;;;;;7399552;19;20026;-76
2024/01/07 02:59:05;;;;;;;9.43;5.53;;;;;;;;;;7370928;19;20007;-75
2024/01/07 03:01:31;;;;;;;7.85;4.78;;;;;;;;;;7368970;19;20019;-75
2024/01/07 03:03:56;;;;;;;10.30;5.18;;;;;;;;;;7389603;19;19999;-76
2024/01/07 03:06:21;;;;;;;8.05;4.95;;;;;;;;;;7370685;19;20010;-76
2024/01/07 03:08:49;;;;;;;9.50;5.45;;;;;;;;;;7367464;19;20060;-76
2024/01/07 03:11:14;;;;;;;8.57;5.60;;;;;;;;;;7370162;19;20888;-76
2024/01/07 03:13:40;;;;;;;8.32;4.90;;;;;;;;;;7369791;19;20014;-76
2024/01/07 03:16:05;;;;;;;9.57;5.20;;;;;;;;;;7370175;19;20010;-76
2024/01/07 03:18:31;;;;;;;8.70;5.05;;;;;;;;;;7396219;19;20014;-76
2024/01/07 03:20:56;;;;;;;7.60;4.93;;;;;;;;;;7381891;19;20122;-76
2024/01/07 03:23:22;;;;;;;8.05;4.93;;;;;;;;;;7376959;19;20083;-76
2024/01/07 03:25:47;;;;;;;9.35;5.53;;;;;;;;;;7374779;19;20002;-76
2024/01/07 03:28:12;;;;;;;7.57;4.80;;;;;;;;;;7370044;19;20086;-76
2024/01/07 03:30:37;;;;;;;9.95;5.15;;;;;;;;;;7390556;19;19994;-76
2024/01/07 03:33:03;;;;;;;7.72;4.78;;;;;;;;;;7368237;19;20015;-76
2024/01/07 03:35:28;;;;;;;8.57;4.78;;;;;;;;;;7370807;19;20018;-76
2024/01/07 03:37:54;;;;;;;7.20;4.40;;;;;;;;;;7369447;19;20018;-76
2024/01/07 03:40:19;;;;;;;7.35;4.43;;;;;;;;;;7370554;19;20094;-76
2024/01/07 03:42:44;;;;;;;7.57;4.60;;;;;;;;;;7391451;19;20007;-76
2024/01/07 03:45:10;;;;;;;8.15;5.00;;;;;;;;;;7368622;19;20006;-75
2024/01/07 03:47:35;;;;;;;9.30;5.30;;;;;;;;;;7368533;19;20304;-76
2024/01/07 03:50:00;;;;;;;7.78;5.25;;;;;;;;;;7370074;19;20006;-76
2024/01/07 03:52:26;;;;;;;7.30;4.28;;;;;;;;;;7369527;19;20018;-75
2024/01/07 03:54:51;;;;;;;7.82;4.32;;;;;;;;;;7388955;19;20007;-76
2024/01/07 03:57:16;;;;;;;8.77;4.85;;;;;;;;;;7368914;19;20022;-76
2024/01/07 03:59:42;;;;;;;8.23;4.32;;;;;;;;;;7369243;19;20011;-76
2024/01/07 04:02:07;;;;;;;7.95;4.78;;;;;;;;;;7368016;19;20400;-76
2024/01/07 04:04:32;;;;;;;7.50;4.57;;;;;;;;;;7368058;19;20101;-76
2024/01/07 04:06:58;;;;;;;8.65;4.65;;;;;;;;;;7381477;19;20452;-76
2024/01/07 04:09:23;;;;;;;6.82;4.43;;;;;;;;;;7380716;19;20086;-76
2024/01/07 04:11:49;;;;;;;6.72;3.53;;;;;;;;;;7368318;19;20126;-76
2024/01/07 04:14:15;;;;;;;7.32;4.10;;;;;;;;;;7367592;19;20010;-76
2024/01/07 04:16:40;;;;;;;7.20;4.28;;;;;;;;;;7366475;19;20006;-76
2024/01/07 04:19:06;;;;;;;7.80;4.72;;;;;;;;;;7368424;19;20066;-76
2024/01/07 04:21:31;;;;;;;10.88;5.07;;;;;;;;;;7389464;19;19999;-76
2024/01/07 04:23:57;;;;;;;8.35;4.45;;;;;;;;;;7365507;19;20426;-76
2024/01/07 04:26:22;;;;;;;7.50;4.50;;;;;;;;;;7383735;19;20003;-75
2024/01/07 04:28:47;;;;;;;7.65;4.10;;;;;;;;;;7393515;19;20002;-75
2024/01/07 04:31:15;;;;;;;7.18;4.25;;;;;;;;;;7382070;19;20054;-76
2024/01/07 04:33:40;;;;;;;7.18;4.55;;;;;;;;;;7392886;19;20020;-76
2024/01/07 04:36:06;;;;;;;8.25;4.40;;;;;;;;;;7377524;19;20366;-75
2024/01/07 04:38:31;;;;;;;9.25;4.90;;;;;;;;;;7367099;19;20569;-75
2024/01/07 04:40:57;;;;;;;7.75;4.50;;;;;;;;;;7367268;19;20437;-75
2024/01/07 04:43:22;;;;;;;8.60;4.70;;;;;;;;;;7367520;19;20011;-75
2024/01/07 04:45:47;;;;;;;7.57;4.88;;;;;;;;;;7390165;19;20130;-75
2024/01/07 04:48:13;;;;;;;8.43;4.18;;;;;;;;;;7366476;19;20362;-75
2024/01/07 04:50:42;;;;;;;8.48;5.03;;;;;;;;;;7366849;19;20018;-75
2024/01/07 04:53:08;;;;;;;10.13;4.93;;;;;;;;;;7365914;19;20113;-76
2024/01/07 04:55:33;;;;;;;8.07;4.88;;;;;;;;;;7368112;19;20030;-75
2024/01/07 04:57:59;;;;;;;8.23;4.88;;;;;;;;;;7368457;19;20003;-75
2024/01/07 05:00:25;;;;;;;8.38;5.00;;;;;;;;;;7392781;19;20002;-75
2024/01/07 05:02:50;;;;;;;8.27;4.97;;;;;;;;;;7367042;19;20115;-75
2024/01/07 05:05:15;;;;;;;8.13;4.68;;;;;;;;;;7369301;19;20014;-76
2024/01/07 05:07:40;;;;;;;9.02;4.95;;;;;;;;;;7374026;19;20010;-76
2024/01/07 05:10:06;;;;;;;8.68;4.85;;;;;;;;;;7375719;19;20026;-76
2024/01/07 05:12:32;;;;;;;8.43;4.57;;;;;;;;;;7397366;19;20002;-76
2024/01/07 05:14:57;;;;;;;7.70;4.53;;;;;;;;;;7375109;19;20419;-75
2024/01/07 05:17:22;;;;;;;8.73;4.85;;;;;;;;;;7374232;19;20026;-75
2024/01/07 05:19:48;;;;;;;7.53;4.13;;;;;;;;;;7374565;19;20691;-75
2024/01/07 05:22:13;;;;;;;6.47;4.07;;;;;;;;;;7373707;19;20357;-75
2024/01/07 05:24:38;;;;;;;7.32;4.07;;;;;;;;;;7400630;19;20003;-75
2024/01/07 05:27:04;;;;;;;8.18;4.50;;;;;;;;;;7377770;19;20010;-75
2024/01/07 05:29:29;;;;;;;7.75;4.72;;;;;;;;;;7379698;19;20097;-75
2024/01/07 05:31:55;;;;;;;7.13;4.20;;;;;;;;;;7377590;19;20015;-75
2024/01/07 05:34:20;;;;;;;7.13;4.20;;;;;;;;;;7371841;19;20034;-75
2024/01/07 05:36:45;;;;;;;8.10;4.18;;;;;;;;;;7397519;19;20009;-75
2024/01/07 05:39:11;;;;;;;7.95;4.25;;;;;;;;;;7376007;19;20014;-75
2024/01/07 05:41:39;;;;;;;9.05;3.78;;;;;;;;;;7372194;19;20014;-75
2024/01/07 05:44:07;;;;;;;6.53;3.53;;;;;;;;;;7372302;19;20071;-75
2024/01/07 05:46:33;;;;;;;7.35;3.95;;;;;;;;;;7372032;19;20473;-75
2024/01/07 05:48:58;;;;;;;7.70;4.30;;;;;;;;;;7378739;19;20082;-75
2024/01/07 05:51:24;;;;;;;6.75;3.83;;;;;;;;;;7394458;19;20003;-76
2024/01/07 05:53:49;;;;;;;7.60;4.00;;;;;;;;;;7371155;19;20014;-76
2024/01/07 05:56:15;;;;;;;6.60;4.07;;;;;;;;;;7371470;19;20143;-75
2024/01/07 05:58:40;;;;;;;6.95;3.85;;;;;;;;;;7373525;19;20505;-75
2024/01/07 06:01:08;;;;;;;7.97;4.30;;;;;;;;;;7382028;19;20002;-75
2024/01/07 06:03:33;;;;;;;5.95;3.53;;;;;;;;;;7402753;19;20129;-76
2024/01/07 06:05:59;;;;;;;6.68;3.67;;;;;;;;;;7372788;19;20758;-75
2024/01/07 06:08:24;;;;;;;6.47;3.58;;;;;;;;;;7373121;19;20035;-75
2024/01/07 06:10:50;;;;;;;7.03;3.70;;;;;;;;;;7372096;19;20112;-76
2024/01/07 06:13:15;;;;;;;6.85;3.88;;;;;;;;;;7371760;19;20784;-75
2024/01/07 06:15:40;;;;;;;6.93;3.67;;;;;;;;;;7393571;19;20011;-75
2024/01/07 06:18:06;;;;;;;8.93;4.03;;;;;;;;;;7371041;19;20006;-75
2024/01/07 06:20:31;;;;;;;6.85;3.38;;;;;;;;;;7374759;19;20006;-74
2024/01/07 06:22:56;;;;;;;6.85;3.67;;;;;;;;;;7371513;19;20011;-74
2024/01/07 06:25:22;;;;;;;7.25;4.03;;;;;;;;;;7371224;19;20011;-75
2024/01/07 06:27:48;;;;;;;7.57;3.95;;;;;;;;;;7393961;19;20346;-75
2024/01/07 06:30:13;;;;;;;9.52;3.92;;;;;;;;;;7362989;19;20170;-75
2024/01/07 06:32:39;;;;;;;8.07;3.90;;;;;;;;;;7372647;19;20022;-75
2024/01/07 06:35:05;;;;;;;7.22;4.20;;;;;;;;;;7370833;19;20002;-75
2024/01/07 06:37:30;;;;;;;8.00;4.10;;;;;;;;;;7370851;19;20074;-75
2024/01/07 06:39:56;;;;;;;7.45;4.13;;;;;;;;;;7394538;19;20076;-75
2024/01/07 06:42:22;;;;;;;8.30;4.70;;;;;;;;;;7368899;19;20078;-75
2024/01/07 06:44:47;;;;;;;9.10;4.55;;;;;;;;;;7372857;19;20485;-75
2024/01/07 06:47:13;;;;;;;9.73;5.07;;;;;;;;;;7372512;19;20075;-75
2024/01/07 06:49:38;;;;;;;8.07;4.70;;;;;;;;;;7381116;19;20014;-75
2024/01/07 06:52:04;;;;;;;9.50;5.53;;;;;;;;;;7381174;19;20002;-75
2024/01/07 06:54:30;;;;;;;9.85;5.55;;;;;;;;;;7392018;19;20026;-75
2024/01/07 06:56:55;;;;;;;12.02;6.72;;;;;;;;;;7372378;19;20002;-75
2024/01/07 06:59:20;;;;;;;10.02;6.07;;;;;;;;;;7372643;19;20022;-75
2024/01/07 07:01:46;;;;;;;11.65;7.55;;;;;;;;;;7378865;19;20018;-75
2024/01/07 07:04:11;;;;;;;12.80;7.97;;;;;;;;;;7379302;19;20401;-75
2024/01/07 07:06:36;;;;;;;15.18;7.13;;;;;;;;;;7405597;19;20404;-75
2024/01/07 07:09:02;;;;;;;13.35;7.20;;;;;;;;;;7382153;19;20030;-75
2024/01/07 07:11:27;;;;;;;11.93;7.32;;;;;;;;;;7371130;19;20790;-75
2024/01/07 07:13:55;;;;;;;12.55;8.02;;;;;;;;;;7370351;19;20002;-74
2024/01/07 07:16:22;;;;;;;12.88;8.13;;;;;;;;;;7370626;19;20016;-75
2024/01/07 07:18:47;;;;;;;14.98;8.88;;;;;;;;;;7390906;19;20015;-75
2024/01/07 07:21:13;;;;;;;12.63;8.02;;;;;;;;;;7369730;19;20113;-75
2024/01/07 07:23:38;;;;;;;14.07;7.03;;;;;;;;;;7368575;19;20007;-75
2024/01/07 07:26:03;;;;;;;13.13;7.10;;;;;;;;;;7373045;19;20015;-77
2024/01/07 07:28:29;;;;;;;12.10;6.90;;;;;;;;;;7372481;19;20015;-75
2024/01/07 07:30:54;;;;;;;11.15;6.72;;;;;;;;;;7400915;19;20482;-76
2024/01/07 07:33:19;;;;;;;10.85;5.93;;;;;;;;;;7380611;19;20030;-76
2024/01/07 07:35:46;;;;;;;11.95;6.50;;;;;;;;;;7382099;19;20010;-76
2024/01/07 07:38:11;;;;;;;13.82;6.45;;;;;;;;;;7373592;19;20014;-76
2024/01/07 07:40:36;;;;;;;10.50;5.97;;;;;;;;;;7366701;19;20614;-76
2024/01/07 07:43:02;;;;;;;12.32;5.93;;;;;;;;;;7368141;19;20019;-76
2024/01/07 07:45:27;;;;;;;9.27;5.72;;;;;;;;;;7389507;19;20006;-76
2024/01/07 07:47:53;;;;;;;11.40;6.00;;;;;;;;;;7365002;19;20330;-75
2024/01/07 07:50:18;;;;;;;10.85;6.63;;;;;;;;;;7366379;19;20417;-75
2024/01/07 07:52:43;;;;;;;12.73;6.70;;;;;;;;;;7367949;19;20018;-75
2024/01/07 07:55:09;;;;;;;11.60;6.22;;;;;;;;;;7367439;19;20002;-75
2024/01/07 07:57:35;;;;;;;10.10;6.30;;;;;;;;;;7387148;19;20007;-75
2024/01/07 08:00:01;;;;;;;12.38;6.65;;;;;;;;;;7366315;19;20010;-75
2024/01/07 08:02:26;;;;;;;12.73;7.80;;;;;;;;;;7353662;19;20098;-74
2024/01/07 08:04:52;;;;;;;12.15;6.88;;;;;;;;;;7367639;19;20408;-77
2024/01/07 08:07:17;;;;;;;12.10;6.55;;;;;;;;;;7369240;19;20505;-77
2024/01/07 08:09:43;;;;;;;13.40;7.60;;;;;;;;;;7394227;19;20009;-76
2024/01/07 08:12:08;;;;;;;12.23;7.40;;;;;;;;;;7365450;19;20014;-75
2024/01/07 08:14:33;;;;;;;13.98;7.88;;;;;;;;;;7365755;19;20086;-75
2024/01/07 08:16:59;;;;;;;15.57;8.93;;;;;;;;;;7364317;19;20358;-75
2024/01/07 08:19:24;;;;;;;15.02;6.72;;;;;;;;;;7363513;19;20010;-74
2024/01/07 08:21:49;;;;;;;14.77;7.85;;;;;;;;;;7385245;19;20446;-75
2024/01/07 08:24:15;;;;;;;14.30;8.25;;;;;;;;;;7360347;19;20077;-75
2024/01/07 08:26:40;;;;;;;13.80;7.75;;;;;;;;;;7364586;19;20030;-75
2024/01/07 08:29:06;;;;;;;14.82;7.78;;;;;;;;;;7364845;19;20006;-74
2024/01/07 08:31:31;;;;;;;13.55;7.22;;;;;;;;;;7365866;19;20002;-77
2024/01/07 08:33:56;;;;;;;12.95;7.38;;;;;;;;;;7383727;19;20453;-77
2024/01/07 08:36:22;;;;;;;15.50;8.40;;;;;;;;;;7359920;19;20524;-77
2024/01/07 08:38:47;;;;;;;14.35;7.68;;;;;;;;;;7358850;19;20021;-77
2024/01/07 08:41:15;;;;;;;12.70;6.82;;;;;;;;;;7357962;19;20838;-77
2024/01/07 08:43:41;;;;;;;12.93;7.40;;;;;;;;;;7361873;19;20010;-77
2024/01/07 08:46:06;;;;;;;16.70;8.40;;;;;;;;;;7363469;19;20002;-77
2024/01/07 08:48:31;;;;;;;14.90;8.15;;;;;;;;;;7386423;19;19995;-78
2024/01/07 08:50:57;;;;;;;11.80;7.15;;;;;;;;;;7366468;19;20034;-77
2024/01/07 08:53:22;;;;;;;17.50;8.27;;;;;;;;;;7367966;19;20002;-76
2024/01/07 08:55:48;;;;;;;11.15;6.28;;;;;;;;;;7365936;19;20002;-76
2024/01/07 08:58:14;;;;;;;17.52;9.00;;;;;;;;;;7367686;19;20524;-76
2024/01/07 09:00:39;;;;;;;14.20;7.72;;;;;;;;;;7386143;19;19995;-76
2024/01/07 09:03:06;;;;;;;13.30;7.43;;;;;;;;;;7362729;19;20013;-76
2024/01/07 09:05:32;;;;;;;14.18;7.78;;;;;;;;;;7368767;19;20362;-76
2024/01/07 09:07:57;;;;;;;15.65;8.15;;;;;;;;;;7379072;19;20086;-75
2024/01/07 09:10:24;;;;;;;13.90;7.93;;;;;;;;;;7370458;19;20017;-75
2024/01/07 09:12:50;;;;;;;11.95;6.20;;;;;;;;;;7394100;19;20003;-74
2024/01/07 09:15:18;;;;;;;15.70;9.00;;;;;;;;;;7362441;19;20042;-75
2024/01/07 09:17:43;;;;;;;14.80;7.30;;;;;;;;;;7363659;19;20069;-75
2024/01/07 09:20:09;;;;;;;17.52;9.02;;;;;;;;;;7364120;19;20003;-75
2024/01/07 09:22:35;;;;;;;13.95;7.68;;;;;;;;;;7357577;19;20010;-75
2024/01/07 09:25:03;;;;;;;15.43;8.52;;;;;;;;;;7362310;19;20018;-76
2024/01/07 09:27:28;;;;;;;14.98;8.20;;;;;;;;;;7384911;19;20572;-75
2024/01/07 09:29:54;;;;;;;14.85;8.93;;;;;;;;;;7364219;19;20007;-75
2024/01/07 09:32:19;;;;;;;15.70;8.05;;;;;;;;;;7362735;19;20490;-75
2024/01/07 09:34:44;;;;;;;16.67;8.68;;;;;;;;;;7362453;19;20066;-75
2024/01/07 09:37:10;;;;;;;15.63;8.88;;;;;;;;;;7362249;19;20007;-76
2024/01/07 09:39:41;;;;;;;15.35;8.18;;;;;;;;;;7385146;19;19999;-75
2024/01/07 09:42:19;;;;;;;16.83;8.85;;;;;;;;;;7360459;19;20081;-75
2024/01/07 09:44:45;;;;;;;14.68;8.35;;;;;;;;;;7362920;19;20401;-76
2024/01/07 09:47:12;;;;;;;32.30;16.05;;;;;;;;;;7361101;19;20007;-75
2024/01/07 09:49:39;;;;;;;13.75;7.95;;;;;;;;;;7363449;19;20034;-76
2024/01/07 09:52:05;;;;;;;14.93;7.20;;;;;;;;;;7365687;19;20050;-76
2024/01/07 09:54:31;;;;;;;13.95;7.28;;;;;;;;;;7389088;19;20358;-76
2024/01/07 09:57:01;;;;;;;13.50;7.13;;;;;;;;;;7370156;19;20007;-76
2024/01/07 09:59:30;;;;;;;14.18;7.68;;;;;;;;;;7368309;19;20010;-76
2024/01/07 10:01:56;;;;;;;13.05;7.43;;;;;;;;;;7368461;19;20013;-76
2024/01/07 10:04:22;;;;;;;12.63;7.45;;;;;;;;;;7366222;19;20070;-76
2024/01/07 10:06:48;;;;;;;13.13;7.22;;;;;;;;;;7391644;19;20422;-76
2024/01/07 10:09:15;;;;;;;12.40;7.05;;;;;;;;;;7368719;19;20003;-76
2024/01/07 10:11:40;;;;;;;13.10;7.25;;;;;;;;;;7366855;19;20010;-76
2024/01/07 10:14:05;;;;;;;16.50;7.97;;;;;;;;;;7368133;19;20015;-76
2024/01/07 10:16:32;;;;;;;18.33;8.68;;;;;;;;;;7366081;19;20011;-76
2024/01/07 10:18:58;;;;;;;9.98;5.95;;;;;;;;;;7381381;19;20610;-75
2024/01/07 10:21:23;;;;;;;11.15;5.97;;;;;;;;;;7382725;19;20011;-76
2024/01/07 10:23:49;;;;;;;10.70;5.70;;;;;;;;;;7365126;19;20043;-76
2024/01/07 10:26:14;;;;;;;11.32;6.18;;;;;;;;;;7367069;19;20018;-74
2024/01/07 10:28:40;;;;;;;12.80;6.80;;;;;;;;;;7367748;19;20093;-74
2024/01/07 10:31:06;;;;;;;13.85;6.88;;;;;;;;;;7368435;19;20471;-74
2024/01/07 10:33:32;;;;;;;12.52;6.65;;;;;;;;;;7388171;19;20014;-74
2024/01/07 10:36:06;;;;;;;11.25;6.07;;;;;;;;;;7369972;19;20002;-75
2024/01/07 10:38:33;;;;;;;16.58;6.47;;;;;;;;;;7369396;19;20073;-75
2024/01/07 10:40:59;;;;;;;8.65;5.40;;;;;;;;;;7371186;19;20370;-75
2024/01/07 10:43:28;;;;;;;10.75;6.65;;;;;;;;;;7369931;19;20013;-75
2024/01/07 10:45:54;;;;;;;11.02;6.20;;;;;;;;;;7389308;19;20014;-75
2024/01/07 10:48:20;;;;;;;12.32;6.40;;;;;;;;;;7365908;19;20662;-75
2024/01/07 10:50:50;;;;;;;11.98;6.50;;;;;;;;;;7365723;19;20010;-75
2024/01/07 10:53:18;;;;;;;13.35;6.40;;;;;;;;;;7365687;19;20010;-75
2024/01/07 10:55:54;;;;;;;11.25;6.38;;;;;;;;;;7371456;19;20059;-75
2024/01/07 10:58:20;;;;;;;11.98;6.28;;;;;;;;;;7366752;19;20472;-74
2024/01/07 11:00:46;;;;;;;11.35;6.40;;;;;;;;;;7388973;19;20111;-75
2024/01/07 11:03:27;;;;;;;11.32;6.40;;;;;;;;;;7365128;19;20010;-75
2024/01/07 11:05:55;;;;;;;;;;;;;;;;;;7367053;19;20488;-75
2024/01/07 11:08:26;;;;;;;9.90;5.60;;;;;;;;;;7365560;19;19925;-74
2024/01/07 11:11:06;;;;;;;10.68;6.00;;;;;;;;;;7365858;19;20013;-74
2024/01/07 11:13:37;;;;;;;10.27;5.43;;;;;;;;;;7373670;19;20014;-74
2024/01/07 11:16:03;;;;;;;10.32;6.03;;;;;;;;;;7368831;19;20006;-73
2024/01/07 11:18:31;;;;;;;10.20;6.18;;;;;;;;;;7390259;19;20014;-75
2024/01/07 11:21:01;;;;;;;14.15;7.07;;;;;;;;;;7371901;19;20480;-75
2024/01/07 11:23:36;;;;;;;11.63;7.17;;;;;;;;;;7374285;19;20006;-75
2024/01/07 11:26:01;;;;;;;9.48;5.65;;;;;;;;;;7368991;19;20006;-74
2024/01/07 11:28:56;;;;;;;8.52;4.68;;;;;;;;;;7366460;19;20003;-74
2024/01/07 11:31:41;;;;;;;10.23;5.93;;;;;;;;;;7367422;19;20010;-74
2024/01/07 11:34:07;;;;;;;11.10;5.97;;;;;;;;;;7365994;19;19995;-75
2024/01/07 11:36:35;;;;;;;11.60;7.05;;;;;;;;;;7387298;19;20022;-74
2024/01/07 11:39:02;;;;;;;10.50;6.28;;;;;;;;;;7365468;19;20361;-75
2024/01/07 11:41:28;;;;;;;8.15;4.75;;;;;;;;;;7364060;19;20006;-75
2024/01/07 11:44:02;;;;;;;14.38;7.30;;;;;;;;;;7369239;19;20002;-74
2024/01/07 11:46:28;;;;;;;11.45;6.72;;;;;;;;;;7369580;19;20009;-75
2024/01/07 11:48:58;;;;;;;12.48;6.45;;;;;;;;;;7389881;19;20007;-76
2024/01/07 11:51:26;;;;;;;8.30;5.43;;;;;;;;;;7363488;19;20108;-77
2024/01/07 11:53:52;;;;;;;10.88;5.95;;;;;;;;;;7363226;19;20003;-75
2024/01/07 11:56:18;;;;;;;9.52;5.55;;;;;;;;;;7364832;19;20509;-76
2024/01/07 11:58:43;;;;;;;11.77;6.47;;;;;;;;;;7364912;19;20065;-76
2024/01/07 12:01:08;;;;;;;10.50;6.00;;;;;;;;;;7368640;19;20010;-75
2024/01/07 12:03:34;;;;;;;10.57;6.15;;;;;;;;;;7386051;19;19999;-75
2024/01/07 12:05:59;;;;;;;10.82;6.25;;;;;;;;;;7365994;19;20006;-76
2024/01/07 12:08:25;;;;;;;7.20;4.60;;;;;;;;;;7363442;19;20014;-76
2024/01/07 12:10:50;;;;;;;11.10;6.82;;;;;;;;;;7363850;19;20002;-76
2024/01/07 12:13:17;;;;;;;10.93;6.68;;;;;;;;;;7364806;19;20007;-75
2024/01/07 12:15:43;;;;;;;11.70;7.00;;;;;;;;;;7384922;19;20003;-75
2024/01/07 12:18:09;;;;;;;13.18;7.40;;;;;;;;;;7365019;19;20021;-76
2024/01/07 12:20:34;;;;;;;11.23;6.35;;;;;;;;;;7365715;19;20005;-76
2024/01/07 12:23:10;;;;;;;10.18;6.55;;;;;;;;;;7367028;19;20007;-76
2024/01/07 12:25:36;;;;;;;14.13;7.38;;;;;;;;;;7365663;19;19998;-77
2024/01/07 12:28:05;;;;;;;12.38;6.90;;;;;;;;;;7370310;19;20006;-75
2024/01/07 12:30:31;;;;;;;11.77;5.43;;;;;;;;;;7389610;19;20006;-75
2024/01/07 12:32:56;;;;;;;11.20;6.25;;;;;;;;;;7368673;19;20018;-74
2024/01/07 12:35:25;;;;;;;13.52;6.90;;;;;;;;;;7367595;19;20015;-75
2024/01/07 12:37:51;;;;;;;13.15;7.03;;;;;;;;;;7364489;19;20022;-75
2024/01/07 12:40:16;;;;;;;15.55;8.27;;;;;;;;;;7363609;19;19994;-76
2024/01/07 12:42:44;;;;;;;10.27;6.22;;;;;;;;;;7386116;19;20014;-75
2024/01/07 12:45:14;;;;;;;12.57;7.13;;;;;;;;;;7362310;19;20002;-75
2024/01/07 12:47:40;;;;;;;14.52;6.78;;;;;;;;;;7366280;19;20038;-75
2024/01/07 12:50:08;;;;;;;12.98;7.63;;;;;;;;;;7371366;19;20013;-75
2024/01/07 12:52:33;;;;;;;16.63;8.32;;;;;;;;;;7364451;19;20006;-77
2024/01/07 12:54:58;;;;;;;13.73;7.97;;;;;;;;;;7371065;19;20503;-75
2024/01/07 12:57:24;;;;;;;14.52;7.45;;;;;;;;;;7377640;19;20054;-75
2024/01/07 12:59:49;;;;;;;14.60;7.20;;;;;;;;;;7365356;19;20011;-75
2024/01/07 13:02:14;;;;;;;13.18;7.05;;;;;;;;;;7359110;19;20450;-75
2024/01/07 13:04:40;;;;;;;13.65;6.65;;;;;;;;;;7361777;19;20002;-76
2024/01/07 13:07:05;;;;;;;11.75;6.15;;;;;;;;;;7364932;19;20003;-75
2024/01/07 13:09:30;;;;;;;12.85;6.75;;;;;;;;;;7380459;19;20048;-76
2024/01/07 13:11:57;;;;;;;14.95;7.22;;;;;;;;;;7362848;19;19998;-75
2024/01/07 13:14:23;;;;;;;10.68;6.00;;;;;;;;;;7364715;19;20010;-75
2024/01/07 13:16:49;;;;;;;10.18;5.38;;;;;;;;;;7363426;19;20077;-75
2024/01/07 13:19:14;;;;;;;10.43;6.32;;;;;;;;;;7358628;19;20022;-75
2024/01/07 13:21:53;;;;;;;11.63;5.82;;;;;;;;;;7385920;19;20023;-75
2024/01/07 13:24:19;;;;;;;13.73;6.68;;;;;;;;;;7362478;19;20002;-76
2024/01/07 13:26:44;;;;;;;12.23;6.68;;;;;;;;;;7363005;19;20026;-76
2024/01/07 13:29:10;;;;;;;11.85;5.18;;;;;;;;;;7368201;19;20014;-76
2024/01/07 13:31:35;;;;;;;11.00;6.10;;;;;;;;;;7371695;19;20421;-75
2024/01/07 13:34:00;;;;;;;9.27;5.25;;;;;;;;;;7367654;19;20006;-76
2024/01/07 13:36:26;;;;;;;14.20;6.18;;;;;;;;;;7392461;19;20011;-75
2024/01/07 13:38:51;;;;;;;13.68;6.50;;;;;;;;;;7376651;19;20005;-77
2024/01/07 13:41:17;;;;;;;8.98;5.18;;;;;;;;;;7372978;19;20011;-75
2024/01/07 13:43:42;;;;;;;12.00;6.72;;;;;;;;;;7370462;19;20009;-75
2024/01/07 13:46:08;;;;;;;11.07;6.80;;;;;;;;;;7368423;19;20010;-76
2024/01/07 13:48:34;;;;;;;12.40;6.22;;;;;;;;;;7394610;19;20008;-77
2024/01/07 13:50:59;;;;;;;11.65;7.47;;;;;;;;;;7373992;19;19994;-75
2024/01/07 13:53:25;;;;;;;11.60;6.10;;;;;;;;;;7371563;19;20013;-75
2024/01/07 13:55:50;;;;;;;10.85;5.30;;;;;;;;;;7371502;19;20002;-75
2024/01/07 13:58:16;;;;;;;10.30;5.45;;;;;;;;;;7372131;19;20003;-75
2024/01/07 14:00:41;;;;;;;9.88;5.30;;;;;;;;;;7392528;19;20001;-76
2024/01/07 14:03:07;;;;;;;12.90;4.80;;;;;;;;;;7371963;19;20477;-75
2024/01/07 14:05:32;;;;;;;11.65;5.72;;;;;;;;;;7373211;19;19998;-75
2024/01/07 14:07:57;;;;;;;10.82;5.22;;;;;;;;;;7375634;19;20057;-75
2024/01/07 14:10:23;;;;;;;14.95;4.90;;;;;;;;;;7375337;19;20002;-75
2024/01/07 14:12:48;;;;;;;9.32;5.00;;;;;;;;;;7408136;19;19999;-75
2024/01/07 14:15:13;;;;;;;10.70;5.72;;;;;;;;;;7380995;19;20021;-75
2024/01/07 14:17:42;;;;;;;9.75;5.95;;;;;;;;;;7386584;19;20022;-75
2024/01/07 14:20:07;;;;;;;11.13;5.43;;;;;;;;;;7390279;19;20007;-75
2024/01/07 14:22:33;;;;;;;11.82;5.82;;;;;;;;;;7388575;19;20015;-75
2024/01/07 14:24:58;;;;;;;10.25;6.28;;;;;;;;;;7401842;19;20002;-75
2024/01/07 14:27:24;;;;;;;10.95;6.03;;;;;;;;;;7406196;19;20010;-75
2024/01/07 14:29:49;;;;;;;9.05;5.40;;;;;;;;;;7390759;19;20015;-75